Atlanta, Georgia
Traffic Map
Current Weather Conditions
Atlanta, Georgia
Clear
Clear
35°
Feels Like: 35°
Wind Chill: 35° Ceiling: Unl
Heat Index: 35° Visibility: 10mi
Dew Point: 19° Wind: 3mph
Humidity: 52% Direction: 10° (N)
Pressure: 30.54in Gusts: 0mph
Raw Report DataKATL 101452Z 01003KT 10SM CLR 02/M07 A3054 RMK AO2 SLP350 T00171072 53013
Traffic Incident Summary
Active as of:
Severity:
Category:
InformationThere was an issue retrieving the traffic information for this location. Please try a different location or try again shortly.
Advertisements
Track Severe Weather on mobile